Time;durP1;ratioP1;P1;durP2;ratioP2;P2;SDS_P1;SDS_P2;PMS_P1;PMS_P2;Temp;Humidity;BMP_temperature;BMP_pressure;BME280_temperature;BME280_humidity;BME280_pressure;Samples;Min_cycle;Max_cycle;Signal;HPM_P1;HPM_P2
2022/07/14 00:01:36;;;;;;;0.30;0.30;;;25.50;99.90;;;;;;5067700;28;20213;-79
2022/07/14 00:04:02;;;;;;;0.30;0.30;;;25.50;99.90;;;;;;5065183;28;20189;-79
2022/07/14 00:06:27;;;;;;;0.40;0.40;;;25.50;99.90;;;;;;5066083;28;20201;-79
2022/07/14 00:08:53;;;;;;;0.30;0.30;;;25.30;99.90;;;;;;5054543;28;20212;-79
2022/07/14 00:11:18;;;;;;;0.63;0.30;;;25.40;99.90;;;;;;5065760;28;20181;-79
2022/07/14 00:13:44;;;;;;;0.30;0.30;;;25.40;99.90;;;;;;5064087;28;20576;-79
2022/07/14 00:16:09;;;;;;;0.23;0.23;;;25.40;99.90;;;;;;5061941;28;20714;-79
2022/07/14 00:18:43;;;;;;;0.40;0.40;;;25.50;99.90;;;;;;5068501;28;20217;-79
2022/07/14 00:21:12;;;;;;;0.30;0.30;;;25.40;99.90;;;;;;5060968;28;20177;-79
2022/07/14 00:23:37;;;;;;;0.20;0.20;;;25.40;99.90;;;;;;5069275;28;20204;-79
2022/07/14 00:26:04;;;;;;;0.23;0.23;;;25.40;99.90;;;;;;5069194;28;20655;-80
2022/07/14 00:28:30;;;;;;;0.20;0.20;;;25.40;99.90;;;;;;5060987;28;20213;-80
2022/07/14 00:30:55;;;;;;;0.30;0.30;;;25.20;99.90;;;;;;5074434;28;20204;-79
2022/07/14 00:33:21;;;;;;;0.50;0.30;;;25.10;99.90;;;;;;5064737;28;20276;-80
2022/07/14 00:35:46;;;;;;;0.53;0.43;;;25.00;99.90;;;;;;5071207;28;20189;-80
2022/07/14 00:38:12;;;;;;;0.30;0.30;;;25.10;99.90;;;;;;5067552;28;20218;-80
2022/07/14 00:40:37;;;;;;;0.30;0.30;;;24.80;99.90;;;;;;5070568;28;20216;-79
2022/07/14 00:43:04;;;;;;;0.37;0.37;;;24.80;99.90;;;;;;5075375;28;20189;-79
2022/07/14 00:45:29;;;;;;;0.47;0.47;;;24.80;99.90;;;;;;5071124;28;20176;-78
2022/07/14 00:47:55;;;;;;;0.40;0.40;;;24.60;99.90;;;;;;5064892;28;20232;-78
2022/07/14 00:50:21;;;;;;;0.63;0.40;;;24.60;99.90;;;;;;5070408;28;20192;-78
2022/07/14 00:52:48;;;;;;;0.40;0.40;;;24.60;99.90;;;;;;5070655;28;20185;-79
2022/07/14 00:55:15;;;;;;;0.20;0.20;;;24.60;99.90;;;;;;5058698;28;20181;-78
2022/07/14 00:57:41;;;;;;;0.27;0.27;;;24.60;99.90;;;;;;5067155;28;20212;-79
2022/07/14 01:00:10;;;;;;;0.77;0.20;;;24.60;99.90;;;;;;5067811;28;20192;-79
2022/07/14 01:02:36;;;;;;;0.40;0.40;;;24.70;99.90;;;;;;5070503;28;20185;-79
2022/07/14 01:05:02;;;;;;;0.20;0.20;;;24.60;99.90;;;;;;5070210;28;20193;-79
2022/07/14 01:07:28;;;;;;;0.40;0.40;;;24.60;99.90;;;;;;5069000;28;20246;-78
2022/07/14 01:09:53;;;;;;;0.20;0.20;;;24.60;99.90;;;;;;5077153;28;20192;-79
2022/07/14 01:12:19;;;;;;;0.30;0.30;;;24.60;99.90;;;;;;5077140;28;20181;-79
2022/07/14 01:14:45;;;;;;;0.37;0.37;;;24.50;99.90;;;;;;5074834;28;20270;-79
2022/07/14 01:17:11;;;;;;;0.47;0.40;;;24.40;99.90;;;;;;5064275;28;20204;-79
2022/07/14 01:19:37;;;;;;;0.30;0.30;;;24.20;99.90;;;;;;5068657;28;20181;-79
2022/07/14 01:22:03;;;;;;;0.30;0.30;;;24.10;99.90;;;;;;5072611;28;20230;-79
2022/07/14 01:24:29;;;;;;;0.50;0.50;;;23.90;99.90;;;;;;5074212;28;20258;-79
2022/07/14 01:26:55;;;;;;;0.43;0.43;;;24.00;99.90;;;;;;5069146;28;20824;-79
2022/07/14 01:29:21;;;;;;;0.27;0.27;;;24.00;99.90;;;;;;5070145;28;20205;-79
2022/07/14 01:31:46;;;;;;;0.30;0.30;;;23.90;99.90;;;;;;5071258;28;20185;-79
2022/07/14 01:34:12;;;;;;;0.33;0.33;;;23.80;99.90;;;;;;5071103;28;20193;-79
2022/07/14 01:36:38;;;;;;;0.30;0.30;;;23.80;99.90;;;;;;5063868;28;20650;-79
2022/07/14 01:39:06;;;;;;;1.03;1.00;;;23.60;99.90;;;;;;5067255;28;20217;-79
2022/07/14 01:41:32;;;;;;;0.50;0.50;;;23.50;99.90;;;;;;5058714;28;20189;-79
2022/07/14 01:43:58;;;;;;;0.27;0.27;;;23.40;99.90;;;;;;5063955;28;20200;-80
2022/07/14 01:46:24;;;;;;;0.50;0.37;;;23.40;99.90;;;;;;5070891;28;20186;-80
2022/07/14 01:48:49;;;;;;;0.60;0.60;;;23.40;99.90;;;;;;5066729;28;20243;-79
2022/07/14 01:51:15;;;;;;;0.63;0.40;;;23.40;99.90;;;;;;5070392;28;20605;-79
2022/07/14 01:53:43;;;;;;;0.30;0.30;;;23.30;99.90;;;;;;5064804;28;20268;-79
2022/07/14 01:56:09;;;;;;;0.47;0.47;;;23.30;99.90;;;;;;5058754;28;20222;-79
2022/07/14 01:58:35;;;;;;;0.50;0.50;;;23.30;99.90;;;;;;5067073;28;20591;-79
2022/07/14 02:03:45;;;;;;;0.40;0.40;;;23.20;99.90;;;;;;5062068;28;20197;-79
2022/07/14 02:06:11;;;;;;;0.23;0.23;;;23.20;99.90;;;;;;5067398;28;20178;-79
2022/07/14 02:08:37;;;;;;;0.60;0.60;;;23.20;99.90;;;;;;5064735;28;20266;-79
2022/07/14 02:13:47;;;;;;;0.60;0.60;;;23.00;99.90;;;;;;5070480;28;20652;-79
2022/07/14 02:16:13;;;;;;;0.60;0.60;;;22.90;99.90;;;;;;5059227;28;20190;-79
2022/07/14 02:18:38;;;;;;;0.30;0.30;;;22.80;99.90;;;;;;5068719;28;20213;-79
2022/07/14 02:21:04;;;;;;;0.30;0.30;;;22.70;99.90;;;;;;5063378;28;20243;-79
2022/07/14 02:23:29;;;;;;;0.30;0.30;;;22.70;99.90;;;;;;5062488;28;20606;-79
2022/07/14 02:25:55;;;;;;;1.40;1.37;;;22.70;99.90;;;;;;5067769;28;20194;-79
2022/07/14 02:28:20;;;;;;;0.30;0.30;;;22.70;99.90;;;;;;5086014;28;20216;-79
2022/07/14 02:30:46;;;;;;;0.70;0.70;;;22.70;99.90;;;;;;5068371;28;20551;-79
2022/07/14 02:33:12;;;;;;;0.30;0.30;;;22.70;99.90;;;;;;5066826;28;20235;-79
2022/07/14 02:35:37;;;;;;;0.30;0.30;;;22.60;99.90;;;;;;5064267;28;20192;-79
2022/07/14 02:38:03;;;;;;;0.43;0.43;;;22.60;99.90;;;;;;5069776;28;20213;-79
2022/07/14 02:40:29;;;;;;;0.30;0.30;;;22.60;99.90;;;;;;5073877;28;20539;-79
2022/07/14 02:42:54;;;;;;;0.30;0.30;;;22.70;99.90;;;;;;5061715;28;20247;-79
2022/07/14 02:45:20;;;;;;;0.50;0.50;;;22.70;99.90;;;;;;5073154;28;20214;-79
2022/07/14 02:47:45;;;;;;;0.30;0.30;;;22.70;99.90;;;;;;5074139;28;20756;-79
2022/07/14 02:50:11;;;;;;;0.43;0.43;;;22.70;99.90;;;;;;5067403;28;20177;-79
2022/07/14 02:52:37;;;;;;;0.40;0.40;;;22.70;99.90;;;;;;5063591;28;20548;-79
2022/07/14 02:55:05;;;;;;;0.33;0.33;;;22.70;99.90;;;;;;5064907;28;20181;-79
2022/07/14 02:57:31;;;;;;;0.23;0.23;;;22.60;99.90;;;;;;5070810;28;20235;-79
2022/07/14 02:59:57;;;;;;;0.23;0.23;;;22.70;99.90;;;;;;5064816;28;20229;-79
2022/07/14 03:02:22;;;;;;;0.57;0.50;;;22.80;99.90;;;;;;5060099;28;20271;-79
2022/07/14 03:04:48;;;;;;;0.90;0.60;;;22.70;99.90;;;;;;5071011;28;20855;-79
2022/07/14 03:07:13;;;;;;;0.50;0.50;;;22.60;99.90;;;;;;5070609;28;20212;-79
2022/07/14 03:09:39;;;;;;;0.50;0.50;;;22.60;99.90;;;;;;5063683;28;20555;-79
2022/07/14 03:12:05;;;;;;;0.23;0.23;;;22.70;99.90;;;;;;5060982;28;20196;-79
2022/07/14 03:14:30;;;;;;;0.33;0.33;;;22.90;99.90;;;;;;5062887;28;20267;-79
2022/07/14 03:16:56;;;;;;;0.40;0.30;;;23.00;99.90;;;;;;5058746;28;20273;-79
2022/07/14 03:19:21;;;;;;;0.20;0.20;;;23.10;99.90;;;;;;5058950;28;20185;-79
2022/07/14 03:21:47;;;;;;;0.70;0.60;;;23.10;99.90;;;;;;5063774;28;20292;-79
2022/07/14 03:24:13;;;;;;;0.50;0.30;;;23.00;99.90;;;;;;5059128;28;20185;-79
2022/07/14 03:26:39;;;;;;;0.30;0.30;;;23.10;99.90;;;;;;5068451;28;20963;-79
2022/07/14 03:29:05;;;;;;;0.47;0.47;;;23.00;99.90;;;;;;5067833;28;20208;-79
2022/07/14 03:31:31;;;;;;;0.40;0.40;;;23.20;99.90;;;;;;5061797;28;20181;-79
2022/07/14 03:33:56;;;;;;;0.50;0.50;;;23.10;99.90;;;;;;5067528;28;20203;-79
2022/07/14 03:36:22;;;;;;;0.63;0.63;;;22.90;99.90;;;;;;5062258;28;20280;-79
2022/07/14 03:38:48;;;;;;;0.30;0.30;;;22.70;99.90;;;;;;5063183;28;20688;-79
2022/07/14 03:41:14;;;;;;;0.43;0.43;;;22.60;99.90;;;;;;5061961;28;20307;-79
2022/07/14 03:43:39;;;;;;;0.50;0.50;;;22.60;99.90;;;;;;5059535;28;20181;-80
2022/07/14 03:46:06;;;;;;;0.73;0.50;;;22.60;99.90;;;;;;5064098;28;20181;-79
2022/07/14 03:48:33;;;;;;;0.70;0.70;;;22.60;99.90;;;;;;5064661;28;20212;-79
2022/07/14 03:50:59;;;;;;;0.27;0.27;;;22.50;99.90;;;;;;5070544;28;20203;-78
2022/07/14 03:53:24;;;;;;;0.20;0.20;;;22.70;99.90;;;;;;5066317;28;20181;-79
2022/07/14 03:55:50;;;;;;;0.50;0.50;;;22.70;99.90;;;;;;5063170;28;20189;-78
2022/07/14 03:58:15;;;;;;;0.47;0.47;;;22.30;99.90;;;;;;5062229;28;20310;-78
2022/07/14 04:00:41;;;;;;;0.30;0.30;;;22.30;99.90;;;;;;5070074;28;20247;-79
2022/07/14 04:03:07;;;;;;;0.83;0.70;;;22.20;99.90;;;;;;5069120;28;20227;-79
2022/07/14 04:05:32;;;;;;;0.73;0.53;;;22.10;99.90;;;;;;5064089;28;20254;-79
2022/07/14 04:07:58;;;;;;;0.53;0.50;;;22.10;99.90;;;;;;5063764;28;20216;-78
2022/07/14 04:10:23;;;;;;;0.60;0.60;;;22.10;99.90;;;;;;5071317;28;20177;-78
2022/07/14 04:12:49;;;;;;;0.30;0.30;;;22.20;99.90;;;;;;5062604;28;20596;-78
2022/07/14 04:15:14;;;;;;;0.20;0.20;;;22.30;99.90;;;;;;5063360;28;20723;-79
2022/07/14 04:17:40;;;;;;;0.50;0.50;;;22.40;99.90;;;;;;5067103;28;20205;-79
2022/07/14 04:20:06;;;;;;;0.80;0.50;;;22.50;99.90;;;;;;5065319;28;20669;-78
2022/07/14 04:22:32;;;;;;;0.30;0.30;;;22.50;99.90;;;;;;5066094;28;20212;-78
2022/07/14 04:24:57;;;;;;;0.60;0.40;;;22.40;99.90;;;;;;5069320;28;20205;-79
2022/07/14 04:27:23;;;;;;;0.40;0.40;;;22.30;99.90;;;;;;5067185;28;20196;-79
2022/07/14 04:29:49;;;;;;;0.30;0.30;;;22.20;99.90;;;;;;5066825;28;20186;-79
2022/07/14 04:32:14;;;;;;;0.60;0.50;;;22.20;99.90;;;;;;5065033;28;20269;-79
2022/07/14 04:34:40;;;;;;;0.60;0.30;;;22.20;99.90;;;;;;5069131;28;20238;-79
2022/07/14 04:37:05;;;;;;;0.97;0.50;;;22.20;99.90;;;;;;5072205;28;20345;-79
2022/07/14 04:39:31;;;;;;;0.53;0.53;;;22.30;99.90;;;;;;5071871;28;20267;-79
2022/07/14 04:41:56;;;;;;;0.50;0.50;;;22.50;99.90;;;;;;5063969;28;20200;-79
2022/07/14 04:44:22;;;;;;;0.30;0.30;;;22.80;99.90;;;;;;5065028;28;20199;-78
2022/07/14 04:46:48;;;;;;;0.40;0.40;;;23.00;99.90;;;;;;5065692;28;20217;-79
2022/07/14 04:52:03;;;;;;;0.40;0.40;;;23.20;99.90;;;;;;5069528;28;21469;-77
2022/07/14 04:54:34;;;;;;;0.27;0.27;;;23.20;99.90;;;;;;5073875;28;20177;-79
2022/07/14 04:57:01;;;;;;;0.30;0.30;;;23.20;99.90;;;;;;5071921;28;20675;-78
2022/07/14 04:59:27;;;;;;;0.33;0.33;;;23.30;99.90;;;;;;5073133;28;20260;-78
2022/07/14 05:01:53;;;;;;;0.30;0.30;;;23.40;99.90;;;;;;5065863;28;20174;-79
2022/07/14 05:04:19;;;;;;;0.43;0.30;;;23.50;99.90;;;;;;5073649;28;20181;-81
2022/07/14 05:06:46;;;;;;;0.40;0.40;;;23.60;99.90;;;;;;5071617;28;20205;-80
2022/07/14 05:09:14;;;;;;;0.33;0.33;;;23.60;99.90;;;;;;5075224;28;20202;-81
2022/07/14 05:11:41;;;;;;;0.50;0.50;;;23.40;99.90;;;;;;5074911;28;20207;-81
2022/07/14 05:14:07;;;;;;;0.20;0.20;;;23.30;99.90;;;;;;5068674;28;20173;-81
2022/07/14 05:16:33;;;;;;;0.40;0.40;;;23.50;99.90;;;;;;5067279;28;20245;-81
2022/07/14 05:18:58;;;;;;;0.77;0.77;;;23.50;99.90;;;;;;5073949;28;20637;-81
2022/07/14 05:21:24;;;;;;;0.50;0.50;;;23.50;99.90;;;;;;5073485;28;20191;-81
2022/07/14 05:23:50;;;;;;;0.50;0.50;;;23.60;99.90;;;;;;5070597;28;20196;-81
2022/07/14 05:26:17;;;;;;;0.60;0.60;;;23.90;99.90;;;;;;5068775;28;20223;-81
2022/07/14 05:28:42;;;;;;;1.60;0.87;;;24.00;99.90;;;;;;5075548;28;20567;-81
2022/07/14 05:31:08;;;;;;;0.53;0.53;;;24.20;99.90;;;;;;5070446;28;20188;-81
2022/07/14 05:33:34;;;;;;;0.40;0.40;;;24.00;99.90;;;;;;5074638;28;20216;-81
2022/07/14 05:36:00;;;;;;;0.43;0.43;;;24.10;99.90;;;;;;5071876;28;20177;-81
2022/07/14 05:38:25;;;;;;;0.60;0.60;;;24.20;99.90;;;;;;5075358;28;20670;-81
2022/07/14 05:40:51;;;;;;;0.50;0.50;;;24.10;99.90;;;;;;5073570;28;20199;-81
2022/07/14 05:43:18;;;;;;;0.47;0.47;;;24.10;99.90;;;;;;5067528;28;20186;-82
2022/07/14 05:45:45;;;;;;;0.50;0.47;;;23.70;99.90;;;;;;5071825;28;20312;-81
2022/07/14 05:48:11;;;;;;;0.50;0.50;;;23.70;99.90;;;;;;5068054;28;20217;-82
2022/07/14 05:50:37;;;;;;;0.30;0.30;;;23.80;99.90;;;;;;5071818;28;20174;-82
2022/07/14 05:53:03;;;;;;;0.40;0.40;;;24.00;99.90;;;;;;5076048;28;20205;-82
2022/07/14 05:55:28;;;;;;;0.40;0.40;;;24.10;99.90;;;;;;5071267;28;20185;-82
2022/07/14 05:57:54;;;;;;;4.13;0.77;;;23.90;99.90;;;;;;5073691;28;20208;-82
2022/07/14 06:00:20;;;;;;;0.40;0.40;;;24.00;99.90;;;;;;5066189;28;20277;-82
2022/07/14 06:02:45;;;;;;;1.10;1.00;;;23.80;99.90;;;;;;5063813;28;20525;-81
2022/07/14 06:05:11;;;;;;;0.30;0.30;;;23.90;99.90;;;;;;5060024;28;20272;-81
2022/07/14 06:07:37;;;;;;;1.37;0.70;;;23.90;99.90;;;;;;5064146;28;20212;-81
2022/07/14 06:10:05;;;;;;;3.67;0.67;;;23.80;99.90;;;;;;5068235;28;20178;-80
2022/07/14 06:12:32;;;;;;;0.60;0.60;;;23.90;99.90;;;;;;5066589;28;20177;-81
2022/07/14 06:14:57;;;;;;;1.17;0.63;;;23.80;99.90;;;;;;5064429;28;20540;-80
2022/07/14 06:17:23;;;;;;;0.60;0.60;;;24.10;99.90;;;;;;5069164;28;20188;-80
2022/07/14 06:19:48;;;;;;;0.20;0.20;;;24.50;99.90;;;;;;5065296;28;20631;-80
2022/07/14 06:22:14;;;;;;;0.40;0.40;;;24.70;99.90;;;;;;5067130;28;20176;-80
2022/07/14 06:24:41;;;;;;;1.37;0.63;;;24.90;99.90;;;;;;5066039;28;20173;-80
2022/07/14 06:27:07;;;;;;;0.43;0.43;;;25.00;99.90;;;;;;5072158;28;20200;-80
2022/07/14 06:29:33;;;;;;;0.63;0.63;;;24.90;99.90;;;;;;5069291;28;20213;-81
2022/07/14 06:31:59;;;;;;;0.60;0.60;;;24.90;99.90;;;;;;5063175;28;20192;-80
2022/07/14 06:34:25;;;;;;;0.40;0.40;;;25.30;99.90;;;;;;5055550;28;20182;-79
2022/07/14 06:36:50;;;;;;;0.40;0.40;;;25.20;99.90;;;;;;5058715;28;20240;-82
2022/07/14 06:39:16;;;;;;;0.47;0.47;;;25.10;99.90;;;;;;5062420;28;20208;-79
2022/07/14 06:41:42;;;;;;;0.37;0.37;;;25.30;99.90;;;;;;5060467;28;20242;-83
2022/07/14 06:44:07;;;;;;;0.87;0.87;;;25.50;99.90;;;;;;5067787;28;20677;-80
2022/07/14 06:46:33;;;;;;;0.60;0.60;;;25.40;99.90;;;;;;5066449;28;20177;-80
2022/07/14 06:48:59;;;;;;;0.40;0.40;;;25.50;99.90;;;;;;5064246;28;20201;-80
2022/07/14 06:51:26;;;;;;;0.50;0.50;;;25.80;99.90;;;;;;5069525;28;20177;-80
2022/07/14 06:53:52;;;;;;;0.53;0.47;;;26.00;99.90;;;;;;5062208;28;20173;-81
2022/07/14 06:56:17;;;;;;;0.80;0.37;;;26.40;99.90;;;;;;5065834;28;20601;-82
2022/07/14 06:58:43;;;;;;;0.30;0.30;;;26.10;99.90;;;;;;5058467;28;20209;-81
2022/07/14 07:01:08;;;;;;;5.13;1.60;;;26.00;99.90;;;;;;5054527;28;20190;-80
2022/07/14 07:03:34;;;;;;;0.83;0.70;;;25.60;99.90;;;;;;5052794;28;20181;-79
2022/07/14 07:08:44;;;;;;;0.40;0.40;;;25.50;99.90;;;;;;5063014;28;20214;-80
2022/07/14 07:11:09;;;;;;;0.93;0.67;;;26.00;99.90;;;;;;5063726;28;20268;-80
2022/07/14 07:13:37;;;;;;;0.87;0.50;;;26.10;99.90;;;;;;5061582;28;20186;-80
2022/07/14 07:16:04;;;;;;;0.60;0.60;;;26.30;99.90;;;;;;5056413;28;20196;-80
2022/07/14 07:18:30;;;;;;;0.50;0.50;;;26.40;99.90;;;;;;5060842;28;20640;-83
2022/07/14 07:20:57;;;;;;;0.87;0.87;;;26.10;99.90;;;;;;5061462;28;20189;-79
2022/07/14 07:23:22;;;;;;;0.40;0.40;;;25.70;99.90;;;;;;5057174;28;20191;-79
2022/07/14 07:25:48;;;;;;;0.63;0.47;;;25.80;99.90;;;;;;5057989;28;20185;-79
2022/07/14 07:28:14;;;;;;;0.30;0.30;;;26.10;99.90;;;;;;5068813;28;20205;-79
2022/07/14 07:30:39;;;;;;;0.67;0.50;;;26.00;99.90;;;;;;5065682;28;20217;-79
2022/07/14 07:33:05;;;;;;;0.63;0.63;;;25.70;99.90;;;;;;5063243;28;20190;-79
2022/07/14 07:35:31;;;;;;;0.40;0.40;;;25.80;99.90;;;;;;5058808;28;20190;-79
2022/07/14 07:37:56;;;;;;;2.13;0.80;;;25.70;99.90;;;;;;5057187;28;20239;-80
2022/07/14 07:40:22;;;;;;;0.80;0.80;;;25.80;99.90;;;;;;5066627;28;20263;-79
2022/07/14 07:42:48;;;;;;;0.50;0.50;;;25.80;99.90;;;;;;5073064;28;20275;-80
2022/07/14 07:45:13;;;;;;;0.43;0.43;;;26.20;99.90;;;;;;5069346;28;20264;-79
2022/07/14 07:47:39;;;;;;;0.97;0.40;;;26.30;99.90;;;;;;5073529;28;20217;-80
2022/07/14 07:50:06;;;;;;;0.30;0.30;;;26.40;99.90;;;;;;5068995;28;20322;-80
2022/07/14 07:52:32;;;;;;;0.70;0.60;;;26.80;99.90;;;;;;5058634;28;20604;-80
2022/07/14 07:54:57;;;;;;;0.40;0.40;;;26.70;99.90;;;;;;5059217;28;20286;-80
2022/07/14 07:57:23;;;;;;;0.60;0.60;;;26.80;99.90;;;;;;5065170;28;20241;-79
2022/07/14 07:59:49;;;;;;;3.27;0.87;;;26.90;99.90;;;;;;5066364;28;20236;-80
2022/07/14 08:02:18;;;;;;;0.50;0.50;;;26.40;99.90;;;;;;5060156;28;20228;-80
2022/07/14 08:04:44;;;;;;;0.50;0.50;;;26.30;99.90;;;;;;5066429;28;20537;-82
2022/07/14 08:07:10;;;;;;;0.73;0.73;;;26.10;99.90;;;;;;5064147;28;20201;-80
2022/07/14 08:09:35;;;;;;;0.70;0.70;;;26.30;99.90;;;;;;5066982;28;20221;-80
2022/07/14 08:12:01;;;;;;;0.90;0.80;;;25.90;99.90;;;;;;5065144;28;20541;-80
2022/07/14 08:17:11;;;;;;;0.50;0.50;;;25.90;99.90;;;;;;5063524;28;20284;-80
2022/07/14 08:19:36;;;;;;;1.17;0.80;;;26.00;99.90;;;;;;5059723;28;20260;-80
2022/07/14 08:22:02;;;;;;;0.73;0.60;;;25.90;99.90;;;;;;5069828;28;20264;-80
2022/07/14 08:24:29;;;;;;;1.20;1.20;;;25.90;99.90;;;;;;5062093;28;20323;-80
2022/07/14 08:26:55;;;;;;;0.50;0.50;;;25.40;99.90;;;;;;5064518;28;20238;-80
2022/07/14 08:29:21;;;;;;;2.03;0.63;;;25.80;99.90;;;;;;5061460;28;20634;-80
2022/07/14 08:31:46;;;;;;;1.07;1.07;;;26.00;99.90;;;;;;5062747;28;20185;-80
2022/07/14 08:34:12;;;;;;;0.43;0.43;;;26.20;99.90;;;;;;5062588;28;20185;-80
2022/07/14 08:36:39;;;;;;;0.63;0.63;;;26.10;99.90;;;;;;5060113;28;20213;-80
2022/07/14 08:39:08;;;;;;;0.70;0.70;;;26.60;99.90;;;;;;5069660;28;20200;-80
2022/07/14 08:41:35;;;;;;;0.60;0.60;;;27.00;99.90;;;;;;5061018;28;22196;-80
2022/07/14 08:44:01;;;;;;;0.60;0.60;;;27.50;99.90;;;;;;5059790;28;20198;-80
2022/07/14 08:46:27;;;;;;;0.73;0.73;;;27.50;99.90;;;;;;5060065;28;20200;-80
2022/07/14 08:48:54;;;;;;;2.97;1.03;;;27.80;99.90;;;;;;5057651;28;20292;-80
2022/07/14 08:51:20;;;;;;;0.67;0.60;;;27.70;99.90;;;;;;5060478;28;20239;-80
2022/07/14 08:53:47;;;;;;;0.70;0.70;;;28.00;99.90;;;;;;5058539;28;20221;-80
2022/07/14 08:56:12;;;;;;;0.68;0.68;;;27.80;99.90;;;;;;5063868;28;20459;-80
2022/07/14 08:58:42;;;;;;;0.85;0.57;;;27.60;99.90;;;;;;5060382;28;20724;-80
2022/07/14 09:01:09;;;;;;;0.63;0.60;;;27.50;99.90;;;;;;5069699;28;20205;-80
2022/07/14 09:03:34;;;;;;;0.60;0.57;;;28.00;99.90;;;;;;5069659;28;20205;-80
2022/07/14 09:06:00;;;;;;;1.17;0.70;;;28.10;99.90;;;;;;5070328;28;20564;-80
2022/07/14 09:08:26;;;;;;;1.17;1.08;;;28.00;99.90;;;;;;5067511;28;20225;-80
2022/07/14 09:10:51;;;;;;;0.80;0.80;;;27.40;99.90;;;;;;5067780;28;20182;-80
2022/07/14 09:13:22;;;;;;;0.63;0.63;;;26.80;99.90;;;;;;5065563;28;20178;-80
2022/07/14 09:15:48;;;;;;;0.90;0.90;;;27.30;99.90;;;;;;5067991;28;20669;-80
2022/07/14 09:18:26;;;;;;;0.63;0.63;;;27.60;99.90;;;;;;5073247;28;20205;-80
2022/07/14 09:20:54;;;;;;;0.70;0.70;;;28.60;99.90;;;;;;5061099;28;20190;-80
2022/07/14 09:23:27;;;;;;;0.82;0.82;;;28.80;99.90;;;;;;5085059;28;20260;-81
2022/07/14 09:26:15;;;;;;;1.58;0.88;;;29.20;99.90;;;;;;5066811;28;20238;-81
2022/07/14 09:28:41;;;;;;;0.80;0.52;;;29.20;99.90;;;;;;5077010;28;20204;-80
2022/07/14 09:31:29;;;;;;;1.40;1.05;;;29.40;99.90;;;;;;5069792;28;20276;-80
2022/07/14 09:34:00;;;;;;;3.22;0.95;;;29.40;99.90;;;;;;5067952;28;20189;-81
2022/07/14 09:36:30;;;;;;;0.68;0.60;;;29.50;99.90;;;;;;5065591;28;20542;-81
2022/07/14 09:39:05;;;;;;;2.28;0.85;;;29.20;99.90;;;;;;5064697;28;20181;-80
2022/07/14 09:41:36;;;;;;;1.25;1.15;;;27.60;99.90;;;;;;5062141;28;20187;-80
2022/07/14 09:44:09;;;;;;;0.65;0.65;;;27.40;99.90;;;;;;5065567;28;20658;-80
2022/07/14 09:46:45;;;;;;;0.55;0.43;;;28.30;99.90;;;;;;5066819;28;20192;-80
2022/07/14 09:49:12;;;;;;;1.45;1.33;;;28.90;99.90;;;;;;5072528;28;20217;-79
2022/07/14 09:52:01;;;;;;;0.70;0.70;;;28.90;99.90;;;;;;5064466;28;20184;-79
2022/07/14 09:54:45;;;;;;;2.05;1.95;;;28.80;99.90;;;;;;5066563;28;20182;-80
2022/07/14 09:57:13;;;;;;;0.40;0.40;;;29.00;99.90;;;;;;5067718;28;20316;-80
2022/07/14 09:59:53;;;;;;;0.80;0.80;;;28.60;99.90;;;;;;5069169;28;20571;-80
2022/07/14 10:02:26;;;;;;;1.20;1.00;;;28.70;99.90;;;;;;5069325;28;20181;-80
2022/07/14 10:04:54;;;;;;;1.08;0.73;;;28.30;99.90;;;;;;5067549;28;20547;-80
2022/07/14 10:07:20;;;;;;;0.63;0.63;;;27.90;99.90;;;;;;5068382;28;20296;-80
2022/07/14 10:10:06;;;;;;;0.75;0.75;;;28.50;99.90;;;;;;5069044;28;20294;-79
2022/07/14 10:12:33;;;;;;;1.27;1.05;;;29.00;99.90;;;;;;5066274;28;20182;-80
2022/07/14 10:15:03;;;;;;;2.33;0.85;;;29.60;99.90;;;;;;5069647;28;20173;-80
2022/07/14 10:17:30;;;;;;;0.60;0.60;;;29.30;99.90;;;;;;5064911;28;20204;-80
2022/07/14 10:19:57;;;;;;;1.38;1.00;;;29.70;99.90;;;;;;5063448;28;20208;-80
2022/07/14 10:22:23;;;;;;;1.80;1.55;;;29.80;99.90;;;;;;5062673;28;20178;-80
2022/07/14 10:24:50;;;;;;;0.85;0.75;;;28.90;99.90;;;;;;5064589;28;20209;-80
2022/07/14 10:27:19;;;;;;;1.42;0.80;;;29.70;99.90;;;;;;5065779;28;20227;-80
2022/07/14 10:29:50;;;;;;;0.60;0.60;;;28.90;99.90;;;;;;5064811;28;20209;-80
2022/07/14 10:32:39;;;;;;;3.45;0.90;;;29.40;99.90;;;;;;5064471;28;20320;-80
2022/07/14 10:35:28;;;;;;;0.95;0.93;;;29.10;99.90;;;;;;5070046;28;20267;-79
2022/07/14 10:38:09;;;;;;;0.93;0.73;;;29.20;99.90;;;;;;5061826;28;20216;-80
2022/07/14 10:40:47;;;;;;;0.95;0.88;;;28.40;99.90;;;;;;5062702;28;20203;-80
2022/07/14 10:43:17;;;;;;;0.68;0.68;;;29.30;99.90;;;;;;5065747;28;20239;-80
2022/07/14 10:45:51;;;;;;;1.02;1.00;;;29.60;99.90;;;;;;5068002;28;20557;-80
2022/07/14 10:48:36;;;;;;;0.60;0.60;;;29.90;99.90;;;;;;5066367;28;20316;-79
2022/07/14 10:51:14;;;;;;;1.50;0.82;;;30.50;99.90;;;;;;5068369;28;20183;-80
2022/07/14 10:54:01;;;;;;;0.60;0.60;;;29.00;99.90;;;;;;5068133;28;20475;-81
2022/07/14 10:56:27;;;;;;;1.30;1.20;;;29.60;99.90;;;;;;5062199;28;20188;-80
2022/07/14 10:59:30;;;;;;;0.68;0.68;;;29.40;99.90;;;;;;5070046;28;20234;-80
2022/07/14 11:02:14;;;;;;;1.70;1.10;;;29.50;99.90;;;;;;5069254;28;20618;-81
2022/07/14 11:07:44;;;;;;;0.90;0.90;;;29.00;99.90;;;;;;5067194;28;20205;-79
2022/07/14 11:10:19;;;;;;;0.63;0.55;;;29.80;99.90;;;;;;5069319;28;20914;-80
2022/07/14 11:13:06;;;;;;;1.02;0.60;;;29.20;99.90;;;;;;5067270;28;20230;-80
2022/07/14 11:15:50;;;;;;;0.45;0.45;;;29.50;99.90;;;;;;5070597;28;20250;-80
2022/07/14 11:18:18;;;;;;;0.75;0.70;;;29.60;99.90;;;;;;5072428;28;20206;-81
2022/07/14 11:21:16;;;;;;;0.80;0.80;;;29.70;99.90;;;;;;5074635;28;20181;-80
2022/07/14 11:23:57;;;;;;;1.20;0.80;;;29.40;99.90;;;;;;5072795;28;20208;-81
2022/07/14 11:26:32;;;;;;;0.60;0.60;;;29.60;99.90;;;;;;5078132;28;20547;-80
2022/07/14 11:28:59;;;;;;;3.83;0.70;;;29.00;99.90;;;;;;5072034;28;20201;-80
2022/07/14 11:31:25;;;;;;;0.90;0.90;;;29.20;99.90;;;;;;5060995;28;20169;-80
2022/07/14 11:37:09;;;;;;;0.63;0.60;;;29.10;99.90;;;;;;5066690;28;20211;-81
2022/07/14 11:39:40;;;;;;;2.15;0.63;;;29.40;99.90;;;;;;5071722;28;20207;-81
2022/07/14 11:42:09;;;;;;;0.82;0.82;;;29.80;99.90;;;;;;5067981;28;20263;-80
2022/07/14 11:44:40;;;;;;;0.75;0.68;;;29.30;99.90;;;;;;5059303;28;20181;-81
2022/07/14 11:47:19;;;;;;;0.38;0.38;;;28.60;99.90;;;;;;5065383;28;20273;-80
2022/07/14 11:50:05;;;;;;;10.52;1.27;;;29.00;99.90;;;;;;5069240;28;20220;-79
2022/07/14 11:52:36;;;;;;;0.80;0.80;;;29.10;99.90;;;;;;5063552;28;20173;-81
2022/07/14 11:55:05;;;;;;;1.55;1.23;;;29.30;99.90;;;;;;5064514;28;20180;-80
2022/07/14 11:57:31;;;;;;;0.57;0.57;;;28.90;99.90;;;;;;5068374;28;20347;-80
2022/07/14 12:00:04;;;;;;;0.70;0.70;;;28.60;99.90;;;;;;5072701;28;20260;-80
2022/07/14 12:02:29;;;;;;;0.90;0.90;;;29.00;99.90;;;;;;5072540;28;20174;-81
2022/07/14 12:04:58;;;;;;;1.27;1.00;;;28.20;99.90;;;;;;5068439;28;20180;-81
2022/07/14 12:07:26;;;;;;;0.63;0.63;;;28.30;99.90;;;;;;5066835;28;20282;-81
2022/07/14 12:09:53;;;;;;;1.08;1.08;;;29.10;99.90;;;;;;5066174;28;20211;-79
2022/07/14 12:12:21;;;;;;;0.68;0.68;;;29.00;99.90;;;;;;5063542;28;20182;-80
2022/07/14 12:14:49;;;;;;;1.38;1.27;;;28.50;99.90;;;;;;5072972;28;20177;-81
2022/07/14 12:17:16;;;;;;;0.75;0.75;;;29.00;99.90;;;;;;5069782;28;20208;-81
2022/07/14 12:19:42;;;;;;;0.63;0.63;;;29.20;99.90;;;;;;5069421;28;20793;-80
2022/07/14 12:22:08;;;;;;;0.70;0.65;;;29.40;99.90;;;;;;5069341;28;20177;-80
2022/07/14 12:24:34;;;;;;;0.60;0.60;;;29.30;99.90;;;;;;5071792;28;20189;-81
2022/07/14 12:27:08;;;;;;;0.70;0.63;;;29.40;99.90;;;;;;5073946;28;20211;-80
2022/07/14 12:29:35;;;;;;;0.50;0.50;;;29.70;99.90;;;;;;5076431;28;20240;-80
2022/07/14 12:32:01;;;;;;;0.85;0.77;;;29.80;99.90;;;;;;5073996;28;20169;-81
2022/07/14 12:34:28;;;;;;;1.15;0.85;;;29.90;99.90;;;;;;5072827;28;20188;-81
2022/07/14 12:37:00;;;;;;;0.82;0.82;;;29.00;99.90;;;;;;5074174;28;20197;-81
2022/07/14 12:39:27;;;;;;;0.63;0.63;;;29.50;99.90;;;;;;5072335;28;20185;-81
2022/07/14 12:41:53;;;;;;;0.93;0.77;;;29.10;99.90;;;;;;5086309;28;20186;-80
2022/07/14 12:44:18;;;;;;;0.95;0.88;;;29.10;99.90;;;;;;5073961;28;20188;-80
2022/07/14 12:46:44;;;;;;;1.25;0.68;;;29.70;99.90;;;;;;5074264;28;20295;-81
2022/07/14 12:49:10;;;;;;;0.45;0.45;;;30.00;99.90;;;;;;5073776;28;20673;-81
2022/07/14 12:51:42;;;;;;;1.15;1.00;;;30.10;99.90;;;;;;5066892;28;20245;-80
2022/07/14 12:54:18;;;;;;;0.50;0.50;;;30.20;99.90;;;;;;5075611;28;20177;-82
2022/07/14 12:56:43;;;;;;;0.60;0.60;;;30.40;99.90;;;;;;5075833;28;20620;-81
2022/07/14 12:59:16;;;;;;;0.73;0.73;;;29.80;99.90;;;;;;5075873;28;20213;-81
2022/07/14 13:02:00;;;;;;;1.20;1.05;;;29.50;99.90;;;;;;5079471;28;20211;-81
2022/07/14 13:04:32;;;;;;;1.67;1.58;;;29.40;99.90;;;;;;5074515;28;20555;-81
2022/07/14 13:07:01;;;;;;;0.60;0.60;;;28.90;99.90;;;;;;5075400;28;20623;-81
2022/07/14 13:09:26;;;;;;;0.57;0.57;;;29.10;99.90;;;;;;5067725;28;20232;-79
2022/07/14 13:11:52;;;;;;;1.45;1.10;;;28.40;99.90;;;;;;5069136;28;20263;-79